Time;durP1;ratioP1;P1;durP2;ratioP2;P2;SDS_P1;SDS_P2;PMS_P1;PMS_P2;Temp;Humidity;BMP_temperature;BMP_pressure;BME280_temperature;BME280_humidity;BME280_pressure;Samples;Min_cycle;Max_cycle;Signal;HPM_P1;HPM_P2
2023/09/23 00:01:39;;;;;;;3.08;1.10;;;;;;;;;;4990861;28;20080;-87
2023/09/23 00:04:05;;;;;;;3.67;1.20;;;;;;;;;;4994868;28;20535;-88
2023/09/23 00:06:31;;;;;;;1.92;1.15;;;;;;;;;;4994211;28;20037;-88
2023/09/23 00:08:57;;;;;;;2.85;1.50;;;;;;;;;;5002960;28;20599;-87
2023/09/23 00:11:23;;;;;;;2.53;2.08;;;;;;;;;;4995347;28;20037;-87
2023/09/23 00:13:49;;;;;;;4.45;1.70;;;;;;;;;;5003618;28;20041;-88
2023/09/23 00:16:15;;;;;;;2.05;1.60;;;;;;;;;;5002637;28;20180;-87
2023/09/23 00:18:43;;;;;;;2.65;1.70;;;;;;;;;;5028957;28;20045;-88
2023/09/23 00:21:09;;;;;;;2.42;1.90;;;;;;;;;;5004426;28;20073;-88
2023/09/23 00:23:35;;;;;;;2.65;1.75;;;;;;;;;;5025697;28;20079;-88
2023/09/23 00:26:02;;;;;;;3.35;1.80;;;;;;;;;;4995920;28;20049;-88
2023/09/23 00:28:30;;;;;;;3.55;1.95;;;;;;;;;;5026714;28;20037;-87
2023/09/23 00:31:05;;;;;;;3.83;1.70;;;;;;;;;;5010254;28;20453;-88
2023/09/23 00:33:31;;;;;;;3.17;1.90;;;;;;;;;;5004003;28;20049;-88
2023/09/23 00:35:57;;;;;;;3.20;1.60;;;;;;;;;;5008580;28;20045;-87
2023/09/23 00:38:23;;;;;;;3.63;1.90;;;;;;;;;;5022102;28;20053;-88
2023/09/23 00:40:51;;;;;;;4.30;1.90;;;;;;;;;;5026446;28;20419;-87
2023/09/23 00:43:18;;;;;;;2.80;2.08;;;;;;;;;;5009391;28;20073;-87
2023/09/23 00:45:48;;;;;;;4.38;2.00;;;12.80;99.90;;;;;;5026292;28;20052;-88
2023/09/23 00:48:18;;;;;;;2.58;1.75;;;;;;;;;;5025571;28;20041;-87
2023/09/23 00:50:44;;;;;;;2.63;1.70;;;;;;;;;;4996024;28;20049;-87
2023/09/23 00:53:10;;;;;;;3.13;1.45;;;;;;;;;;5006333;28;20412;-88
2023/09/23 00:55:42;;;;;;;3.40;2.08;;;12.80;99.90;;;;;;5009584;28;20049;-89
2023/09/23 00:58:08;;;;;;;2.60;1.95;;;;;;;;;;5026141;28;20049;-88
2023/09/23 01:00:36;;;;;;;3.88;3.08;;;;;;;;;;5009752;28;20168;-88
2023/09/23 01:03:03;;;;;;;5.57;3.17;;;;;;;;;;5025696;28;20041;-88
2023/09/23 01:05:29;;;;;;;6.22;3.95;;;;;;;;;;5021967;28;20759;-88
2023/09/23 01:08:04;;;;;;;5.68;4.50;;;12.90;99.90;;;;;;5011890;28;20042;-88
2023/09/23 01:10:30;;;;;;;7.07;4.38;;;;;;;;;;5009353;28;20048;-87
2023/09/23 01:12:57;;;;;;;6.65;4.45;;;;;;;;;;5005100;28;20049;-87
2023/09/23 01:15:25;;;;;;;6.72;3.95;;;12.90;99.90;;;;;;5005925;28;20574;-88
2023/09/23 01:17:53;;;;;;;9.00;4.60;;;;;;;;;;5015401;28;20152;-87
2023/09/23 01:20:20;;;;;;;5.65;4.97;;;;;;;;;;5008397;28;20048;-87
2023/09/23 01:22:49;;;;;;;6.03;4.95;;;12.60;99.90;;;;;;5005646;28;20569;-88
2023/09/23 01:25:16;;;;;;;5.53;4.88;;;;;;;;;;4996589;28;20069;-88
2023/09/23 01:27:42;;;;;;;6.63;5.20;;;;;;;;;;4999481;28;20099;-87
2023/09/23 01:30:09;;;;;;;8.65;4.75;;;;;;;;;;5006961;28;20077;-87
2023/09/23 01:32:49;;;;;;;7.38;4.60;;;;;;;;;;5007285;28;20049;-89
2023/09/23 01:35:20;;;;;;;8.38;5.18;;;;;;;;;;5007797;28;20045;-87
2023/09/23 01:37:46;;;;;;;7.28;4.53;;;;;;;;;;4995030;28;20052;-87
2023/09/23 01:40:19;;;;;;;6.10;4.93;;;12.60;99.90;;;;;;5015724;28;20052;-87
2023/09/23 01:42:46;;;;;;;7.00;4.72;;;;;;;;;;5000832;28;20087;-88
2023/09/23 01:45:13;;;;;;;6.07;4.63;;;;;;;;;;5002815;28;20394;-87
2023/09/23 01:47:39;;;;;;;6.53;4.63;;;;;;;;;;5016826;28;20056;-88
2023/09/23 01:50:06;;;;;;;6.45;4.35;;;;;;;;;;4999620;28;20046;-88
2023/09/23 01:52:32;;;;;;;5.50;3.88;;;;;;;;;;5002143;28;20052;-87
2023/09/23 01:54:58;;;;;;;8.07;4.30;;;;;;;;;;5019096;28;20803;-88
2023/09/23 01:57:24;;;;;;;5.57;3.65;;;;;;;;;;5006341;28;20056;-88
2023/09/23 01:59:50;;;;;;;5.00;3.63;;;;;;;;;;5005777;28;20045;-87
2023/09/23 02:02:17;;;;;;;6.22;3.63;;;;;;;;;;5013918;28;20054;-87
2023/09/23 02:04:43;;;;;;;5.30;3.30;;;;;;;;;;4997869;28;20037;-87
2023/09/23 02:07:10;;;;;;;4.75;3.63;;;;;;;;;;4998793;28;20034;-87
2023/09/23 02:09:39;;;;;;;7.60;3.95;;;;;;;;;;5008544;28;20531;-87
2023/09/23 02:12:06;;;;;;;5.90;3.30;;;;;;;;;;5010523;28;20087;-88
2023/09/23 02:14:32;;;;;;;8.38;3.80;;;;;;;;;;5005531;28;20049;-88
2023/09/23 02:16:58;;;;;;;5.40;3.88;;;;;;;;;;4987007;28;20424;-87
2023/09/23 02:19:25;;;;;;;10.15;4.03;;;;;;;;;;4997766;28;20045;-87
2023/09/23 02:21:52;;;;;;;5.22;3.95;;;;;;;;;;5003777;28;20054;-87
2023/09/23 02:24:18;;;;;;;7.53;4.88;;;;;;;;;;5012154;28;20503;-87
2023/09/23 02:26:48;;;;;;;6.53;5.03;;;12.20;99.90;;;;;;4998389;28;20069;-87
2023/09/23 02:29:15;;;;;;;9.18;5.50;;;12.10;99.90;;;;;;5018826;28;20064;-88
2023/09/23 02:31:49;;;;;;;6.40;5.18;;;;;;;;;;5000821;28;20117;-87
2023/09/23 02:34:16;;;;;;;6.90;5.50;;;;;;;;;;5002823;28;20053;-88
2023/09/23 02:36:43;;;;;;;8.68;5.28;;;;;;;;;;5008240;28;20046;-87
2023/09/23 02:39:15;;;;;;;6.38;4.72;;;;;;;;;;5011593;28;20048;-88
2023/09/23 02:41:42;;;;;;;6.53;5.13;;;;;;;;;;4998756;28;20045;-88
2023/09/23 02:44:08;;;;;;;6.22;4.75;;;;;;;;;;5023172;28;20124;-87
2023/09/23 02:46:35;;;;;;;5.78;4.55;;;;;;;;;;5004250;28;20179;-88
2023/09/23 02:49:01;;;;;;;7.82;5.53;;;;;;;;;;5006167;28;20041;-87
2023/09/23 02:51:27;;;;;;;7.43;4.43;;;;;;;;;;4994892;28;20050;-87
2023/09/23 02:53:53;;;;;;;9.95;4.95;;;;;;;;;;5004465;28;20041;-87
2023/09/23 02:56:19;;;;;;;8.13;4.93;;;;;;;;;;4998283;28;20095;-88
2023/09/23 02:58:47;;;;;;;9.32;5.15;;;;;;;;;;5008309;28;20090;-88
2023/09/23 03:01:14;;;;;;;7.25;5.05;;;;;;;;;;5003794;28;20091;-88
2023/09/23 03:03:40;;;;;;;6.30;5.00;;;;;;;;;;5023515;28;20049;-87
2023/09/23 03:06:10;;;;;;;7.38;4.93;;;;;;;;;;4996405;28;20041;-88
2023/09/23 03:08:37;;;;;;;5.65;5.05;;;;;;;;;;5024784;28;20120;-88
2023/09/23 03:11:08;;;;;;;8.40;4.72;;;;;;;;;;5025648;28;20045;-88
2023/09/23 03:13:36;;;;;;;7.53;5.55;;;;;;;;;;5010826;28;20073;-88
2023/09/23 03:16:08;;;;;;;6.10;4.80;;;;;;;;;;5027649;28;20065;-88
2023/09/23 03:18:54;;;;;;;8.07;6.00;;;;;;;;;;5009932;28;20463;-88
2023/09/23 03:21:20;;;;;;;6.38;5.28;;;;;;;;;;5024902;28;20055;-87
2023/09/23 03:23:46;;;;;;;10.38;5.70;;;;;;;;;;5011080;28;20049;-87
2023/09/23 03:26:14;;;;;;;8.07;6.57;;;;;;;;;;5014024;28;20030;-87
2023/09/23 03:28:40;;;;;;;8.80;5.88;;;;;;;;;;5006604;28;20042;-87
2023/09/23 03:31:10;;;;;;;10.23;6.88;;;;;;;;;;5005623;28;20052;-88
2023/09/23 03:33:37;;;;;;;11.23;7.15;;;11.70;99.90;;;;;;5001351;28;20053;-88
2023/09/23 03:36:03;;;;;;;8.13;6.32;;;;;;;;;;5005942;28;20045;-87
2023/09/23 03:38:29;;;;;;;9.02;6.00;;;;;;;;;;5001165;28;20042;-88
2023/09/23 03:40:59;;;;;;;9.57;6.22;;;;;;;;;;5009452;28;20092;-87
2023/09/23 03:43:25;;;;;;;10.02;6.93;;;;;;;;;;4991358;28;20405;-88
2023/09/23 03:45:52;;;;;;;9.10;6.75;;;;;;;;;;5020966;28;20060;-88
2023/09/23 03:48:19;;;;;;;10.15;7.88;;;;;;;;;;5011449;28;20782;-88
2023/09/23 03:50:45;;;;;;;7.63;6.38;;;;;;;;;;5027822;28;20528;-88
2023/09/23 03:53:11;;;;;;;8.95;6.70;;;;;;;;;;5019187;28;20045;-88
2023/09/23 03:55:38;;;;;;;11.15;7.05;;;;;;;;;;5005434;28;20079;-88
2023/09/23 03:58:04;;;;;;;10.02;6.95;;;;;;;;;;5010846;28;20041;-88
2023/09/23 04:00:33;;;;;;;10.20;7.40;;;;;;;;;;5007990;28;20041;-87
2023/09/23 04:02:59;;;;;;;9.40;6.82;;;;;;;;;;5027180;28;20045;-86
2023/09/23 04:05:26;;;;;;;8.43;6.55;;;;;;;;;;5027377;28;20075;-88
2023/09/23 04:07:53;;;;;;;9.80;7.88;;;;;;;;;;5002739;28;20053;-87
2023/09/23 04:10:25;;;;;;;12.77;7.00;;;;;;;;;;5011107;28;20437;-88
2023/09/23 04:12:53;;;;;;;10.90;7.00;;;;;;;;;;5007874;28;20045;-88
2023/09/23 04:15:22;;;;;;;8.82;6.38;;;;;;;;;;5008893;28;20111;-87
2023/09/23 04:17:48;;;;;;;9.95;6.95;;;;;;;;;;5026716;28;20511;-87
2023/09/23 04:20:17;;;;;;;8.98;6.38;;;;;;;;;;5014100;28;20115;-87
2023/09/23 04:22:46;;;;;;;8.77;6.80;;;;;;;;;;5007376;28;20052;-88
2023/09/23 04:25:13;;;;;;;9.75;6.88;;;;;;;;;;5009783;28;20084;-87
2023/09/23 04:27:40;;;;;;;8.90;6.95;;;;;;;;;;5015536;28;20080;-88
2023/09/23 04:30:09;;;;;;;10.57;7.40;;;;;;;;;;5001835;28;20489;-87
2023/09/23 04:32:35;;;;;;;10.90;7.43;;;;;;;;;;5007892;28;20053;-87
2023/09/23 04:35:02;;;;;;;11.30;8.10;;;;;;;;;;5009496;28;20041;-88
2023/09/23 04:37:28;;;;;;;9.00;7.05;;;;;;;;;;5005876;28;20049;-87
2023/09/23 04:39:55;;;;;;;10.10;7.40;;;;;;;;;;5007886;28;20097;-86
2023/09/23 04:42:22;;;;;;;12.38;8.20;;;;;;;;;;4998841;28;20041;-88
2023/09/23 04:44:48;;;;;;;10.40;7.45;;;;;;;;;;5025976;28;20492;-88
2023/09/23 04:47:14;;;;;;;9.38;7.30;;;;;;;;;;5009294;28;20057;-87
2023/09/23 04:49:41;;;;;;;10.20;7.68;;;;;;;;;;5019966;28;20046;-87
2023/09/23 04:52:07;;;;;;;10.80;7.93;;;;;;;;;;5008266;28;20049;-88
2023/09/23 04:54:33;;;;;;;11.80;8.82;;;;;;;;;;5005179;28;20045;-87
2023/09/23 04:57:00;;;;;;;11.10;8.15;;;;;;;;;;5025853;28;20103;-88
2023/09/23 04:59:25;;;;;;;10.57;7.82;;;;;;;;;;5025825;28;20103;-87
2023/09/23 05:01:51;;;;;;;13.50;9.07;;;;;;;;;;5009485;28;20045;-87
2023/09/23 05:04:18;;;;;;;11.70;8.32;;;;;;;;;;5004988;28;20045;-87
2023/09/23 05:06:44;;;;;;;9.70;8.27;;;;;;;;;;5020617;28;20049;-87
2023/09/23 05:09:11;;;;;;;12.93;8.55;;;;;;;;;;5003612;28;20041;-88
2023/09/23 05:11:37;;;;;;;10.55;8.38;;;;;;;;;;5009140;28;20099;-87
2023/09/23 05:14:05;;;;;;;12.43;8.38;;;;;;;;;;5019472;28;20459;-87
2023/09/23 05:16:31;;;;;;;16.27;10.27;;;;;;;;;;5002551;28;20054;-87
2023/09/23 05:18:57;;;;;;;12.40;8.90;;;;;;;;;;5025583;28;20056;-87
2023/09/23 05:21:24;;;;;;;15.20;9.30;;;;;;;;;;5025180;28;20038;-88
2023/09/23 05:23:51;;;;;;;15.30;8.70;;;;;;;;;;5006166;28;20569;-87
2023/09/23 05:26:19;;;;;;;14.88;9.25;;;;;;;;;;5007086;28;20119;-87
2023/09/23 05:28:45;;;;;;;14.73;9.63;;;;;;;;;;5008897;28;20049;-87
2023/09/23 05:31:13;;;;;;;12.35;9.43;;;;;;;;;;5008513;28;20041;-88
2023/09/23 05:33:40;;;;;;;14.15;10.07;;;;;;;;;;5021106;28;20136;-87
2023/09/23 05:36:06;;;;;;;13.50;9.93;;;;;;;;;;5025290;28;20084;-87
2023/09/23 05:38:36;;;;;;;16.80;11.40;;;;;;;;;;5004879;28;20060;-87
2023/09/23 05:41:03;;;;;;;16.98;12.00;;;;;;;;;;5005588;28;20053;-87
2023/09/23 05:43:29;;;;;;;18.45;12.18;;;;;;;;;;5003287;28;20037;-87
2023/09/23 05:45:55;;;;;;;19.85;12.55;;;;;;;;;;5003657;28;20497;-88
2023/09/23 05:48:21;;;;;;;18.88;13.40;;;;;;;;;;5008939;28;20048;-87
2023/09/23 05:50:49;;;;;;;23.23;14.45;;;;;;;;;;5008199;28;20682;-87
2023/09/23 05:53:15;;;;;;;28.15;14.73;;;;;;;;;;5025181;28;20049;-87
2023/09/23 05:55:41;;;;;;;28.27;16.17;;;;;;;;;;5025213;28;20056;-88
2023/09/23 05:58:07;;;;;;;28.83;15.70;;;;;;;;;;5002892;28;20038;-87
2023/09/23 06:00:33;;;;;;;27.85;16.95;;;;;;;;;;5009128;28;20504;-87
2023/09/23 06:02:59;;;;;;;26.48;16.73;;;;;;;;;;5018301;28;20045;-87
2023/09/23 06:05:25;;;;;;;25.38;15.48;;;;;;;;;;5005644;28;20045;-88
2023/09/23 06:07:52;;;;;;;31.20;16.27;;;;;;;;;;5005215;28;20848;-88
2023/09/23 06:10:18;;;;;;;26.88;16.67;;;;;;;;;;5007395;28;20037;-88
2023/09/23 06:12:44;;;;;;;28.25;16.42;;;;;;;;;;5006620;28;20049;-87
2023/09/23 06:15:10;;;;;;;26.70;17.17;;;;;;;;;;5007631;28;20061;-87
2023/09/23 06:17:37;;;;;;;29.05;16.63;;;;;;;;;;5008428;28;20041;-87
2023/09/23 06:20:04;;;;;;;34.28;19.33;;;;;;;;;;5004968;28;20119;-88
2023/09/23 06:22:33;;;;;;;29.55;17.60;;;;;;;;;;5023028;28;20052;-88
2023/09/23 06:24:59;;;;;;;27.35;16.83;;;;;;;;;;5001669;28;20637;-87
2023/09/23 06:27:25;;;;;;;29.13;16.88;;;;;;;;;;5005210;28;20062;-86
2023/09/23 06:29:53;;;;;;;29.65;18.73;;;;;;;;;;5005183;28;20056;-87
2023/09/23 06:32:19;;;;;;;33.05;19.38;;;;;;;;;;5008144;28;20049;-88
2023/09/23 06:34:45;;;;;;;28.98;17.30;;;;;;;;;;5020359;28;20056;-88
2023/09/23 06:37:11;;;;;;;30.63;18.90;;;;;;;;;;5008282;28;20045;-89
2023/09/23 06:39:37;;;;;;;33.70;18.83;;;;;;;;;;5002768;28;20053;-88
2023/09/23 06:42:03;;;;;;;33.13;19.38;;;;;;;;;;5022865;28;20050;-88
2023/09/23 06:44:29;;;;;;;26.83;17.05;;;;;;;;;;5009162;28;20455;-88
2023/09/23 06:46:55;;;;;;;33.65;18.75;;;;;;;;;;4998528;28;20053;-88
2023/09/23 06:49:21;;;;;;;32.42;18.55;;;;;;;;;;5011084;28;20038;-89
2023/09/23 06:51:47;;;;;;;30.75;19.50;;;;;;;;;;4998614;28;20601;-87
2023/09/23 06:54:13;;;;;;;33.53;18.80;;;;;;;;;;4995303;28;20041;-88
2023/09/23 06:56:39;;;;;;;29.58;18.60;;;;;;;;;;5008455;28;20067;-87
2023/09/23 06:59:05;;;;;;;31.92;19.40;;;;;;;;;;5002049;28;20061;-87
2023/09/23 07:01:33;;;;;;;31.65;18.92;;;;;;;;;;5027725;28;20516;-87
2023/09/23 07:03:59;;;;;;;27.45;16.77;;;;;;;;;;5010875;28;20075;-87
2023/09/23 07:06:25;;;;;;;27.25;16.83;;;;;;;;;;5008795;28;20041;-87
2023/09/23 07:08:50;;;;;;;25.83;17.08;;;13.20;99.90;;;;;;5007740;28;20052;-87
2023/09/23 07:11:16;;;;;;;27.67;17.35;;;;;;;;;;5008365;28;20171;-87
2023/09/23 07:13:42;;;;;;;22.95;15.15;;;;;;;;;;5010141;28;20760;-86
2023/09/23 07:16:15;;;;;;;24.25;15.27;;;;;;;;;;5026208;28;20777;-88
2023/09/23 07:18:41;;;;;;;24.02;17.00;;;;;;;;;;5011285;28;20075;-87
2023/09/23 07:21:07;;;;;;;21.35;14.18;;;;;;;;;;5027728;28;20041;-87
2023/09/23 07:23:33;;;;;;;23.88;15.68;;;;;;;;;;5006779;28;20112;-87
2023/09/23 07:26:00;;;;;;;24.45;15.18;;;;;;;;;;5027852;28;20042;-87
2023/09/23 07:28:27;;;;;;;19.67;12.73;;;;;;;;;;5024410;28;20524;-87
2023/09/23 07:30:53;;;;;;;18.83;13.00;;;;;;;;;;5009250;28;20061;-88
2023/09/23 07:33:19;;;;;;;18.35;11.57;;;;;;;;;;5022527;28;20049;-88
2023/09/23 07:35:45;;;;;;;16.48;11.93;;;;;;;;;;5027025;28;20045;-87
2023/09/23 07:38:12;;;;;;;20.38;11.82;;;;;;;;;;4997263;28;20563;-88
2023/09/23 07:40:39;;;;;;;20.85;11.88;;;14.80;99.90;;;;;;5027897;28;20095;-87
2023/09/23 07:43:06;;;;;;;16.35;11.68;;;;;;;;;;5010966;28;20099;-87
2023/09/23 07:45:32;;;;;;;13.90;10.07;;;;;;;;;;5023548;28;20096;-87
2023/09/23 07:47:58;;;;;;;14.35;9.35;;;;;;;;;;5026182;28;20049;-88
2023/09/23 07:50:24;;;;;;;16.63;11.13;;;;;;;;;;5008709;28;20340;-87
2023/09/23 07:52:50;;;;;;;16.27;10.82;;;;;;;;;;5023965;28;20052;-87
2023/09/23 07:55:16;;;;;;;16.52;9.77;;;;;;;;;;5010712;28;20060;-87
2023/09/23 07:57:42;;;;;;;15.70;10.52;;;;;;;;;;5023384;28;20049;-86
2023/09/23 08:00:09;;;;;;;16.35;10.50;;;;;;;;;;5004733;28;20049;-86
2023/09/23 08:02:35;;;;;;;16.05;10.38;;;;;;;;;;5008177;28;20046;-86
2023/09/23 08:05:03;;;;;;;15.48;10.68;;;;;;;;;;5025117;28;20096;-87
2023/09/23 08:07:29;;;;;;;18.48;10.05;;;;;;;;;;5009550;28;20049;-87
2023/09/23 08:09:55;;;;;;;13.90;10.05;;;;;;;;;;5022739;28;20079;-87
2023/09/23 08:12:22;;;;;;;13.10;9.98;;;;;;;;;;5026868;28;20075;-87
2023/09/23 08:14:48;;;;;;;12.80;9.40;;;;;;;;;;5007965;28;20131;-86
2023/09/23 08:17:17;;;;;;;13.07;8.32;;;;;;;;;;5006745;28;20103;-87
2023/09/23 08:19:44;;;;;;;13.85;8.90;;;;;;;;;;5010031;28;20048;-87
2023/09/23 08:22:10;;;;;;;14.13;8.43;;;;;;;;;;5000953;28;20042;-87
2023/09/23 08:24:37;;;;;;;13.43;9.32;;;;;;;;;;4985901;28;20077;-86
2023/09/23 08:27:05;;;;;;;14.13;7.65;;;;;;;;;;4993618;28;20046;-86
2023/09/23 08:29:31;;;;;;;10.60;7.95;;;;;;;;;;4992960;28;20080;-86
2023/09/23 08:31:57;;;;;;;10.60;6.88;;;;;;;;;;4994074;28;20080;-86
2023/09/23 08:34:24;;;;;;;12.57;8.13;;;;;;;;;;5010393;28;20037;-86
2023/09/23 08:36:51;;;;;;;12.52;8.38;;;;;;;;;;4989740;28;20072;-86
2023/09/23 08:39:18;;;;;;;13.23;8.20;;;;;;;;;;5005801;28;20084;-87
2023/09/23 08:41:51;;;;;;;11.85;7.97;;;15.70;99.90;;;;;;4993186;28;20045;-87
2023/09/23 08:44:21;;;;;;;12.98;8.35;;;15.70;99.90;;;;;;4989657;28;20080;-86
2023/09/23 08:46:50;;;;;;;12.85;8.20;;;16.10;99.90;;;;;;4991417;28;20128;-86
2023/09/23 08:49:17;;;;;;;11.13;8.05;;;;;;;;;;5010032;28;20056;-87
2023/09/23 08:51:44;;;;;;;9.35;6.65;;;17.20;99.90;;;;;;4993996;28;20092;-87
2023/09/23 08:54:11;;;;;;;8.38;6.55;;;18.10;99.90;;;;;;5009933;28;20049;-87
2023/09/23 08:56:37;;;;;;;7.82;5.28;;;;;;;;;;4993942;28;20049;-87
2023/09/23 08:59:03;;;;;;;8.05;5.28;;;;;;;;;;5010407;28;20048;-86
2023/09/23 09:01:29;;;;;;;8.98;5.13;;;;;;;;;;4990388;28;20042;-87
2023/09/23 09:03:55;;;;;;;6.95;4.63;;;;;;;;;;5009275;28;20047;-86
2023/09/23 09:06:27;;;;;;;7.43;4.68;;;;;;;;;;5009861;28;20516;-87
2023/09/23 09:08:53;;;;;;;7.50;4.68;;;;;;;;;;4992937;28;20444;-87
2023/09/23 09:11:21;;;;;;;10.38;5.65;;;17.80;99.90;;;;;;5009464;28;20111;-90
2023/09/23 09:13:47;;;;;;;10.40;5.30;;;;;;;;;;4992754;28;20446;-88
2023/09/23 09:16:13;;;;;;;9.38;5.57;;;;;;;;;;4992866;28;20586;-87
2023/09/23 09:18:39;;;;;;;10.05;5.90;;;;;;;;;;5009752;28;20056;-87
2023/09/23 09:21:08;;;;;;;10.52;5.28;;;;;;;;;;5009896;28;20041;-88
2023/09/23 09:23:36;;;;;;;9.32;6.57;;;;;;;;;;5000171;28;20049;-88
2023/09/23 09:26:02;;;;;;;8.38;5.50;;;;;;;;;;5008206;28;20412;-88
2023/09/23 09:28:30;;;;;;;7.13;5.20;;;;;;;;;;5006096;28;20038;-88
2023/09/23 09:30:56;;;;;;;6.68;4.07;;;;;;;;;;5024546;28;20839;-87
2023/09/23 09:33:26;;;;;;;11.32;4.97;;;19.80;99.90;;;;;;5008739;28;20072;-87
2023/09/23 09:35:56;;;;;;;6.03;4.45;;;20.90;99.90;;;;;;5025488;28;20041;-88
2023/09/23 09:38:25;;;;;;;9.68;4.22;;;20.60;99.90;;;;;;5018855;28;20702;-88
2023/09/23 09:40:57;;;;;;;8.63;5.47;;;21.10;99.90;;;;;;5041090;28;20695;-88
2023/09/23 09:43:24;;;;;;;4.85;3.42;;;21.20;99.90;;;;;;5008893;28;20038;-88
2023/09/23 09:45:51;;;;;;;7.90;5.57;;;20.10;99.90;;;;;;5006275;28;20170;-88
2023/09/23 09:48:18;;;;;;;10.95;5.13;;;18.60;99.90;;;;;;5006422;28;20132;-88
2023/09/23 09:50:45;;;;;;;7.72;4.40;;;18.00;99.90;;;;;;5007102;28;20037;-88
2023/09/23 09:53:12;;;;;;;6.07;4.57;;;;;;;;;;5008445;28;20786;-89
2023/09/23 09:55:38;;;;;;;6.05;3.55;;;;;;;;;;5025583;28;20389;-88
2023/09/23 09:58:23;;;;;;;7.80;3.70;;;;;;;;;;5003883;28;20045;-88
2023/09/23 10:00:52;;;;;;;5.97;3.03;;;;;;;;;;4991196;28;20045;-88
2023/09/23 10:03:27;;;;;;;7.53;4.00;;;16.70;99.90;;;;;;5007036;28;20045;-88
2023/09/23 10:05:58;;;;;;;;;;;16.50;99.90;;;;;;5006301;28;20045;-88
2023/09/23 10:08:26;;;;;;;8.68;3.80;;;;;;;;;;5022326;28;20382;-88
2023/09/23 10:11:04;;;;;;;5.72;3.58;;;16.40;99.90;;;;;;5025037;28;20849;-89
2023/09/23 10:13:33;;;;;;;9.23;4.07;;;;;;;;;;5002437;28;20042;-88
2023/09/23 10:16:06;;;;;;;6.70;3.78;;;16.20;99.90;;;;;;5007700;28;20763;-88
2023/09/23 10:18:42;;;;;;;6.75;4.68;;;16.20;99.90;;;;;;5019382;28;20042;-88
2023/09/23 10:21:20;;;;;;;8.25;3.97;;;16.20;99.90;;;;;;5007794;28;20077;-88
2023/09/23 10:23:46;;;;;;;6.93;3.65;;;;;;;;;;5029649;28;20045;-89
2023/09/23 10:26:18;;;;;;;8.80;3.63;;;16.50;99.90;;;;;;5013090;28;20048;-89
2023/09/23 10:28:58;;;;;;;7.05;2.97;;;16.50;99.90;;;;;;5029500;28;20504;-87
2023/09/23 10:31:32;;;;;;;5.97;3.20;;;16.80;99.90;;;;;;5021747;28;20520;-87
2023/09/23 10:33:58;;;;;;;6.28;2.70;;;;;;;;;;5003317;28;20052;-87
2023/09/23 10:36:24;;;;;;;7.28;2.90;;;;;;;;;;5010661;28;20042;-87
2023/09/23 10:38:50;;;;;;;4.30;2.47;;;;;;;;;;5013072;28;20045;-88
2023/09/23 10:41:17;;;;;;;4.82;2.63;;;;;;;;;;5026632;28;20045;-87
2023/09/23 10:43:43;;;;;;;3.72;2.63;;;;;;;;;;5012764;28;20038;-87
2023/09/23 10:46:10;;;;;;;4.55;2.47;;;;;;;;;;5006143;28;20040;-86
2023/09/23 10:48:36;;;;;;;7.60;2.80;;;;;;;;;;5006286;28;20117;-87
2023/09/23 10:51:04;;;;;;;6.28;2.40;;;;;;;;;;5015516;28;20049;-87
2023/09/23 10:53:30;;;;;;;3.97;2.00;;;;;;;;;;5010485;28;20049;-87
2023/09/23 10:56:01;;;;;;;8.70;1.63;;;16.90;99.90;;;;;;5001845;28;20056;-88
2023/09/23 10:58:29;;;;;;;3.95;1.73;;;17.10;99.90;;;;;;5012961;28;20119;-87
2023/09/23 11:00:57;;;;;;;3.85;2.05;;;;;;;;;;5002367;28;20046;-87
2023/09/23 11:03:23;;;;;;;4.95;1.52;;;;;;;;;;5012235;28;20054;-88
2023/09/23 11:05:49;;;;;;;4.97;1.63;;;;;;;;;;5029006;28;20116;-87
2023/09/23 11:08:18;;;;;;;5.72;1.90;;;16.80;99.90;;;;;;5025848;28;20485;-88
2023/09/23 11:10:45;;;;;;;4.45;1.85;;;16.70;99.90;;;;;;4998865;28;20046;-87
2023/09/23 11:13:12;;;;;;;4.25;1.50;;;17.00;99.90;;;;;;4999034;28;20052;-87
2023/09/23 11:15:41;;;;;;;3.17;1.50;;;17.00;99.90;;;;;;5012483;28;20057;-87
2023/09/23 11:18:07;;;;;;;5.50;1.67;;;;;;;;;;5028507;28;20883;-87
2023/09/23 11:20:35;;;;;;;4.25;1.35;;;;;;;;;;5017834;28;20046;-87
2023/09/23 11:23:03;;;;;;;4.80;1.23;;;17.00;99.90;;;;;;4994564;28;20042;-88
2023/09/23 11:25:42;;;;;;;3.03;1.55;;;17.10;99.90;;;;;;5005112;28;20523;-87
2023/09/23 11:28:26;;;;;;;4.45;1.17;;;17.40;99.90;;;;;;4996116;28;20192;-87
2023/09/23 11:30:53;;;;;;;3.05;1.25;;;17.30;99.90;;;;;;5021375;28;20041;-87
2023/09/23 11:33:20;;;;;;;5.20;1.50;;;;;;;;;;5002518;28;20452;-88
2023/09/23 11:35:46;;;;;;;2.90;0.88;;;;;;;;;;5012638;28;20041;-88
2023/09/23 11:38:12;;;;;;;4.90;1.30;;;;;;;;;;5029229;28;20052;-88
2023/09/23 11:40:39;;;;;;;6.25;1.63;;;;;;;;;;5012289;28;20465;-87
2023/09/23 11:43:05;;;;;;;1.83;0.90;;;;;;;;;;5011562;28;20049;-87
2023/09/23 11:45:34;;;;;;;2.20;0.98;;;;;;;;;;5003401;28;20076;-87
2023/09/23 11:48:03;;;;;;;6.07;1.30;;;17.00;99.90;;;;;;5014408;28;20029;-88
2023/09/23 11:50:29;;;;;;;4.50;0.88;;;;;;;;;;5011576;28;20041;-87
2023/09/23 11:52:55;;;;;;;5.00;0.98;;;;;;;;;;5012422;28;20131;-87
2023/09/23 11:55:26;;;;;;;4.07;1.10;;;;;;;;;;5014341;28;20040;-87
2023/09/23 11:57:54;;;;;;;3.45;1.05;;;;;;;;;;5032283;28;20733;-87
2023/09/23 12:00:20;;;;;;;3.88;1.27;;;;;;;;;;5003465;28;20139;-87
2023/09/23 12:02:48;;;;;;;3.92;1.25;;;;;;;;;;5012399;28;20048;-87
2023/09/23 12:05:17;;;;;;;3.90;1.00;;;16.80;99.90;;;;;;5028883;28;20052;-87
2023/09/23 12:07:43;;;;;;;3.17;0.75;;;;;;;;;;5010858;28;20069;-87
2023/09/23 12:10:10;;;;;;;3.28;1.02;;;17.10;99.90;;;;;;5028480;28;20052;-87
2023/09/23 12:12:38;;;;;;;5.50;1.10;;;;;;;;;;5012396;28;20045;-87
2023/09/23 12:15:05;;;;;;;4.85;0.70;;;17.10;99.90;;;;;;5005632;28;20081;-87
2023/09/23 12:17:31;;;;;;;3.03;1.17;;;;;;;;;;4976039;28;20061;-87
2023/09/23 12:19:57;;;;;;;4.30;0.75;;;;;;;;;;4981069;28;20046;-88
2023/09/23 12:22:23;;;;;;;5.68;0.80;;;;;;;;;;4986482;28;20067;-87
2023/09/23 12:24:52;;;;;;;2.50;0.80;;;;;;;;;;4993739;28;20125;-87
2023/09/23 12:27:21;;;;;;;4.07;0.85;;;;;;;;;;4995910;28;20080;-88
2023/09/23 12:29:47;;;;;;;2.58;0.73;;;;;;;;;;4981620;28;20517;-88
2023/09/23 12:32:13;;;;;;;5.97;1.25;;;;;;;;;;4993354;28;20046;-86
2023/09/23 12:34:40;;;;;;;5.25;1.15;;;;;;;;;;4991072;28;20053;-87
2023/09/23 12:37:05;;;;;;;3.53;0.82;;;;;;;;;;5009961;28;20053;-87
2023/09/23 12:39:32;;;;;;;2.95;0.70;;;;;;;;;;4993277;28;20042;-88
2023/09/23 12:41:58;;;;;;;3.70;0.63;;;;;;;;;;4986650;28;20057;-88
2023/09/23 12:44:24;;;;;;;2.67;0.75;;;;;;;;;;4990073;28;20038;-87
2023/09/23 12:46:50;;;;;;;3.53;0.70;;;;;;;;;;4990907;28;20092;-87
2023/09/23 12:49:16;;;;;;;1.88;0.88;;;;;;;;;;4992435;28;20049;-87
2023/09/23 12:51:42;;;;;;;3.60;0.70;;;17.10;99.90;;;;;;4994551;28;20037;-87
2023/09/23 12:54:08;;;;;;;2.40;0.60;;;;;;;;;;4994169;28;20103;-87
2023/09/23 12:56:36;;;;;;;4.43;0.55;;;17.00;99.90;;;;;;4993698;28;20045;-89
2023/09/23 12:59:02;;;;;;;3.00;0.75;;;;;;;;;;5010480;28;20046;-87
2023/09/23 13:01:31;;;;;;;2.85;1.15;;;;;;;;;;4983797;28;20037;-87
2023/09/23 13:03:57;;;;;;;2.50;0.70;;;;;;;;;;5010346;28;20093;-87
2023/09/23 13:06:23;;;;;;;1.70;0.70;;;;;;;;;;5010517;28;20060;-88
2023/09/23 13:08:48;;;;;;;4.07;0.90;;;17.10;99.90;;;;;;4994132;28;20041;-87
2023/09/23 13:11:15;;;;;;;3.60;0.88;;;;;;;;;;5010240;28;20045;-87
2023/09/23 13:13:41;;;;;;;4.03;0.63;;;;;;;;;;4994020;28;20052;-87
2023/09/23 13:16:10;;;;;;;2.10;0.90;;;;;;;;;;4997583;28;20065;-87
2023/09/23 13:18:36;;;;;;;5.15;0.80;;;;;;;;;;5022735;28;20053;-87
2023/09/23 13:21:03;;;;;;;2.13;0.90;;;;;;;;;;5016176;28;20084;-87
2023/09/23 13:23:29;;;;;;;2.90;0.80;;;;;;;;;;5012327;28;20111;-87
2023/09/23 13:25:55;;;;;;;5.88;0.90;;;;;;;;;;4998405;28;20080;-88
2023/09/23 13:28:21;;;;;;;2.45;1.02;;;;;;;;;;5010602;28;20791;-87
2023/09/23 13:30:47;;;;;;;2.92;0.68;;;;;;;;;;5019477;28;20084;-87
2023/09/23 13:33:13;;;;;;;2.85;0.80;;;16.80;99.90;;;;;;5017004;28;20095;-87
2023/09/23 13:35:39;;;;;;;1.38;0.70;;;;;;;;;;4992438;28;20438;-88
2023/09/23 13:38:08;;;;;;;1.90;0.50;;;;;;;;;;4994380;28;20057;-88
2023/09/23 13:40:37;;;;;;;3.65;0.70;;;;;;;;;;5001926;28;20037;-87
2023/09/23 13:43:03;;;;;;;3.22;1.00;;;;;;;;;;5023241;28;20050;-87
2023/09/23 13:45:29;;;;;;;2.03;0.65;;;;;;;;;;5000105;28;20060;-88
2023/09/23 13:47:55;;;;;;;1.15;0.52;;;;;;;;;;5003161;28;20124;-87
2023/09/23 13:50:21;;;;;;;2.40;0.65;;;;;;;;;;5021940;28;20044;-87
2023/09/23 13:52:47;;;;;;;4.75;1.05;;;;;;;;;;5006263;28;20044;-88
2023/09/23 13:55:13;;;;;;;1.58;0.70;;;;;;;;;;5004658;28;20557;-87
2023/09/23 13:57:39;;;;;;;2.55;0.70;;;;;;;;;;5024548;28;20037;-88
2023/09/23 14:00:07;;;;;;;3.65;0.52;;;16.70;99.90;;;;;;5000745;28;20056;-88
2023/09/23 14:02:34;;;;;;;1.20;0.60;;;;;;;;;;5006914;28;20042;-88
2023/09/23 14:05:00;;;;;;;2.83;0.65;;;;;;;;;;5021271;28;20042;-88
2023/09/23 14:07:27;;;;;;;2.17;0.80;;;;;;;;;;4999664;28;20509;-88
2023/09/23 14:09:53;;;;;;;2.30;0.73;;;;;;;;;;5013384;28;20037;-88
2023/09/23 14:12:19;;;;;;;1.70;0.70;;;;;;;;;;5006321;28;20053;-88
2023/09/23 14:14:45;;;;;;;2.08;0.60;;;;;;;;;;4992693;28;20053;-88
2023/09/23 14:17:11;;;;;;;3.38;0.80;;;;;;;;;;5000503;28;20058;-88